Time;durP1;ratioP1;P1;durP2;ratioP2;P2;SDS_P1;SDS_P2;PMS_P1;PMS_P2;Temp;Humidity;BMP_temperature;BMP_pressure;BME280_temperature;BME280_humidity;BME280_pressure;Samples;Min_cycle;Max_cycle;Signal;HPM_P1;HPM_P2
2022/04/12 00:00:43;;;;;;;11.05;3.50;;;18.70;58.80;;;;;;5013268;28;20018;-61
2022/04/12 00:03:09;;;;;;;11.15;3.75;;;18.70;58.70;;;;;;5014155;28;20380;-61
2022/04/12 00:05:36;;;;;;;11.70;3.70;;;18.70;58.80;;;;;;5018809;28;20030;-61
2022/04/12 00:08:02;;;;;;;11.95;3.58;;;18.70;58.80;;;;;;5017675;28;20486;-61
2022/04/12 00:10:28;;;;;;;11.30;3.60;;;18.70;58.80;;;;;;5019232;28;20474;-61
2022/04/12 00:12:55;;;;;;;10.70;3.20;;;18.70;58.80;;;;;;5012411;28;20184;-61
2022/04/12 00:15:20;;;;;;;11.32;3.28;;;18.70;58.80;;;;;;5018619;28;20584;-61
2022/04/12 00:20:30;;;;;;;10.73;3.38;;;18.70;58.80;;;;;;5018774;28;20083;-61
2022/04/12 00:22:57;;;;;;;9.65;3.28;;;18.70;58.80;;;;;;5014562;28;20105;-61
2022/04/12 00:25:23;;;;;;;10.50;3.25;;;18.70;58.80;;;;;;5021114;28;20032;-61
2022/04/12 00:27:50;;;;;;;9.02;3.10;;;18.60;58.80;;;;;;5013978;28;20893;-61
2022/04/12 00:30:16;;;;;;;9.27;3.35;;;18.70;58.80;;;;;;5017553;28;20108;-61
2022/04/12 00:32:41;;;;;;;10.77;3.30;;;18.70;58.80;;;;;;5016917;28;20073;-61
2022/04/12 00:35:07;;;;;;;9.35;3.22;;;18.60;58.80;;;;;;5019698;28;20482;-61
2022/04/12 00:37:33;;;;;;;8.80;2.92;;;18.60;58.80;;;;;;5018041;28;20025;-61
2022/04/12 00:39:59;;;;;;;8.48;2.97;;;18.60;58.80;;;;;;5014532;28;20037;-61
2022/04/12 00:42:24;;;;;;;9.90;3.30;;;18.60;58.80;;;;;;5014588;28;20525;-61
2022/04/12 00:44:50;;;;;;;10.80;3.17;;;18.60;58.80;;;;;;5022697;28;20044;-61
2022/04/12 00:47:16;;;;;;;8.48;3.30;;;18.60;58.80;;;;;;5019349;28;20624;-61
2022/04/12 00:49:41;;;;;;;10.85;3.25;;;18.60;58.80;;;;;;5016186;28;20112;-61
2022/04/12 00:52:07;;;;;;;9.45;3.05;;;18.60;58.80;;;;;;5014048;28;20045;-61
2022/04/12 00:54:34;;;;;;;10.07;3.20;;;18.60;58.90;;;;;;5018176;28;20034;-61
2022/04/12 00:56:59;;;;;;;10.38;3.10;;;18.60;58.90;;;;;;5021403;28;20116;-61
2022/04/12 00:59:25;;;;;;;10.70;3.35;;;18.60;58.80;;;;;;5019475;28;20120;-61
2022/04/12 01:01:51;;;;;;;8.57;3.33;;;18.60;58.80;;;;;;5015934;28;20021;-61
2022/04/12 01:04:17;;;;;;;9.02;3.10;;;18.60;58.90;;;;;;5021769;28;20712;-61
2022/04/12 01:06:42;;;;;;;8.95;3.00;;;18.60;58.90;;;;;;5013064;28;20036;-61
2022/04/12 01:09:09;;;;;;;9.68;3.17;;;18.60;58.90;;;;;;5052545;28;20028;-61
2022/04/12 01:11:35;;;;;;;7.95;2.70;;;18.60;58.90;;;;;;5021302;28;20057;-60
2022/04/12 01:14:01;;;;;;;10.25;3.20;;;18.50;58.80;;;;;;5015403;28;20567;-61
2022/04/12 01:16:27;;;;;;;10.90;3.45;;;18.50;58.80;;;;;;5013866;28;20109;-61
2022/04/12 01:18:53;;;;;;;10.05;3.13;;;18.50;58.90;;;;;;5017381;28;20376;-61
2022/04/12 01:21:19;;;;;;;9.27;2.90;;;18.50;58.80;;;;;;5015383;28;20026;-61
2022/04/12 01:24:03;;;;;;;8.82;2.80;;;18.50;58.80;;;;;;5015815;28;20368;-61
2022/04/12 01:26:29;;;;;;;8.15;2.83;;;18.50;58.80;;;;;;5016588;28;20030;-61
2022/04/12 01:28:55;;;;;;;8.10;2.90;;;18.50;58.80;;;;;;5015661;28;20056;-60
2022/04/12 01:31:20;;;;;;;8.68;2.83;;;18.50;58.80;;;;;;5012564;28;20079;-61
2022/04/12 01:33:46;;;;;;;8.55;3.05;;;18.50;58.80;;;;;;5021142;28;20022;-61
2022/04/12 01:36:11;;;;;;;7.07;2.90;;;18.50;58.80;;;;;;5019501;28;20025;-60
2022/04/12 01:38:37;;;;;;;9.32;3.00;;;18.50;58.80;;;;;;5015802;28;20026;-61
2022/04/12 01:41:03;;;;;;;7.75;2.97;;;18.50;58.80;;;;;;5017036;28;20108;-61
2022/04/12 01:43:29;;;;;;;8.50;2.63;;;18.50;58.80;;;;;;5018572;28;20029;-61
2022/04/12 01:45:55;;;;;;;8.60;2.92;;;18.50;58.90;;;;;;5014653;28;20069;-61
2022/04/12 01:48:20;;;;;;;7.53;2.90;;;18.50;58.90;;;;;;5017499;28;20029;-61
2022/04/12 01:50:46;;;;;;;7.20;2.65;;;18.50;58.80;;;;;;5022063;28;20072;-61
2022/04/12 01:53:12;;;;;;;8.32;2.90;;;18.50;58.90;;;;;;5011475;28;20033;-61
2022/04/12 01:55:37;;;;;;;7.78;2.80;;;18.50;58.80;;;;;;5014958;28;20136;-61
2022/04/12 01:58:04;;;;;;;7.55;2.60;;;18.50;58.80;;;;;;5015633;28;20075;-61
2022/04/12 02:00:29;;;;;;;7.20;2.60;;;18.50;58.80;;;;;;5014326;28;20037;-61
2022/04/12 02:02:56;;;;;;;8.48;2.90;;;18.50;58.80;;;;;;5016872;28;20527;-60
2022/04/12 02:05:21;;;;;;;7.00;2.70;;;18.40;58.80;;;;;;5014968;28;20199;-60
2022/04/12 02:07:47;;;;;;;8.50;3.17;;;18.40;58.80;;;;;;5015743;28;20491;-61
2022/04/12 02:10:13;;;;;;;7.78;2.70;;;18.40;58.80;;;;;;5011711;28;20033;-61
2022/04/12 02:12:38;;;;;;;5.95;2.53;;;18.40;58.90;;;;;;5013742;28;20091;-61
2022/04/12 02:15:04;;;;;;;6.70;2.45;;;18.40;58.80;;;;;;5016010;28;20109;-60
2022/04/12 02:17:30;;;;;;;6.80;2.30;;;18.40;58.90;;;;;;5015950;28;20104;-61
2022/04/12 02:19:56;;;;;;;8.15;2.42;;;18.40;58.90;;;;;;5020992;28;20478;-61
2022/04/12 02:22:21;;;;;;;8.25;2.78;;;18.40;58.90;;;;;;5013119;28;20438;-61
2022/04/12 02:24:47;;;;;;;7.82;2.80;;;18.40;58.90;;;;;;5014989;28;20030;-61
2022/04/12 02:27:13;;;;;;;7.22;2.55;;;18.40;58.90;;;;;;5011388;28;20105;-61
2022/04/12 02:29:39;;;;;;;8.23;2.67;;;18.40;58.90;;;;;;5018184;28;20050;-60
2022/04/12 02:32:05;;;;;;;8.43;2.58;;;18.40;59.00;;;;;;5015178;28;20128;-61
2022/04/12 02:34:30;;;;;;;6.90;2.40;;;18.40;58.90;;;;;;5015596;28;20022;-61
2022/04/12 02:36:56;;;;;;;8.60;2.53;;;18.40;59.00;;;;;;5012338;28;20456;-61
2022/04/12 02:39:21;;;;;;;7.32;2.45;;;18.40;59.00;;;;;;5015124;28;20554;-61
2022/04/12 02:41:48;;;;;;;7.90;2.65;;;18.40;59.00;;;;;;5020191;28;20087;-61
2022/04/12 02:44:14;;;;;;;7.97;2.67;;;18.40;59.00;;;;;;5012203;28;20079;-61
2022/04/12 02:46:40;;;;;;;6.55;2.40;;;18.40;58.90;;;;;;5014972;28;20026;-61
2022/04/12 02:49:06;;;;;;;6.50;2.50;;;18.40;59.00;;;;;;5010355;28;20484;-61
2022/04/12 02:51:32;;;;;;;7.53;2.58;;;18.30;59.00;;;;;;5011656;28;20141;-61
2022/04/12 02:53:57;;;;;;;5.90;2.20;;;18.40;59.00;;;;;;5015748;28;20026;-61
2022/04/12 02:56:23;;;;;;;6.43;2.30;;;18.30;59.10;;;;;;5011261;28;20057;-61
2022/04/12 02:58:49;;;;;;;6.28;2.05;;;18.30;59.00;;;;;;5015449;28;20033;-61
2022/04/12 03:01:14;;;;;;;6.40;2.30;;;18.40;58.90;;;;;;5010501;28;20033;-61
2022/04/12 03:03:40;;;;;;;8.75;2.60;;;18.30;59.10;;;;;;5015339;28;20030;-61
2022/04/12 03:06:06;;;;;;;5.80;2.28;;;18.30;59.00;;;;;;5015077;28;20022;-61
2022/04/12 03:08:31;;;;;;;7.63;2.30;;;18.30;59.00;;;;;;5014786;28;20032;-61
2022/04/12 03:10:57;;;;;;;6.75;2.67;;;18.30;59.00;;;;;;5011350;28;20438;-61
2022/04/12 03:13:23;;;;;;;7.78;2.40;;;18.30;59.00;;;;;;5010834;28;20046;-61
2022/04/12 03:15:48;;;;;;;6.78;2.47;;;18.30;59.10;;;;;;5013832;28;20394;-61
2022/04/12 03:18:16;;;;;;;8.13;2.25;;;18.30;59.00;;;;;;5017609;28;20037;-61
2022/04/12 03:20:42;;;;;;;5.93;2.15;;;18.30;59.10;;;;;;5014861;28;20462;-61
2022/04/12 03:23:08;;;;;;;7.55;2.45;;;18.30;59.10;;;;;;5015990;28;20072;-61
2022/04/12 03:25:34;;;;;;;5.78;2.47;;;18.30;59.00;;;;;;5012966;28;20030;-61
2022/04/12 03:28:00;;;;;;;8.00;2.50;;;18.30;59.00;;;;;;5009778;28;20454;-61
2022/04/12 03:30:26;;;;;;;7.65;2.55;;;18.30;59.00;;;;;;5011355;28;20026;-61
2022/04/12 03:32:51;;;;;;;6.03;2.30;;;18.30;59.00;;;;;;5017523;28;20046;-61
2022/04/12 03:35:17;;;;;;;6.97;2.40;;;18.30;59.00;;;;;;5012980;28;20499;-61
2022/04/12 03:37:42;;;;;;;7.45;2.28;;;18.30;59.10;;;;;;5017120;28;20208;-60
2022/04/12 03:40:09;;;;;;;6.95;2.20;;;18.30;59.10;;;;;;5012022;28;20397;-61
2022/04/12 03:42:35;;;;;;;6.97;2.20;;;18.30;59.20;;;;;;5021590;28;20062;-61
2022/04/12 03:45:01;;;;;;;6.15;2.28;;;18.20;59.00;;;;;;5016893;28;20648;-61
2022/04/12 03:47:26;;;;;;;6.93;2.03;;;18.20;59.00;;;;;;5016178;28;20057;-61
2022/04/12 03:49:52;;;;;;;5.72;2.10;;;18.20;59.10;;;;;;5015230;28;20036;-61
2022/04/12 03:52:18;;;;;;;8.07;2.40;;;18.20;59.10;;;;;;5016888;28;20572;-61
2022/04/12 03:54:43;;;;;;;7.85;2.55;;;18.20;59.10;;;;;;5023311;28;20026;-61
2022/04/12 03:57:09;;;;;;;6.40;2.10;;;18.20;59.10;;;;;;5018933;28;20037;-61
2022/04/12 03:59:35;;;;;;;6.82;2.28;;;18.20;59.10;;;;;;5023454;28;20079;-61
2022/04/12 04:02:00;;;;;;;8.07;2.25;;;18.20;59.10;;;;;;5022930;28;20026;-61
2022/04/12 04:04:26;;;;;;;7.13;2.05;;;18.20;59.20;;;;;;5014569;28;20105;-61
2022/04/12 04:06:52;;;;;;;6.70;2.13;;;18.20;59.10;;;;;;5018552;28;20033;-61
2022/04/12 04:09:17;;;;;;;6.05;2.30;;;18.20;59.20;;;;;;5018758;28;20105;-61
2022/04/12 04:11:43;;;;;;;7.35;2.13;;;18.20;59.30;;;;;;5021334;28;20573;-61
2022/04/12 04:14:10;;;;;;;7.13;2.05;;;18.20;59.20;;;;;;5017635;28;20037;-61
2022/04/12 04:16:37;;;;;;;8.07;2.20;;;18.20;59.20;;;;;;5014632;28;20076;-61
2022/04/12 04:19:02;;;;;;;7.50;2.08;;;18.20;59.30;;;;;;5013830;28;20079;-61
2022/04/12 04:21:28;;;;;;;6.93;2.20;;;18.20;59.30;;;;;;5017311;28;20037;-61
2022/04/12 04:23:54;;;;;;;6.40;2.20;;;18.20;59.30;;;;;;5022593;28;20018;-61
2022/04/12 04:26:19;;;;;;;7.60;2.15;;;18.20;59.20;;;;;;5017017;28;20104;-61
2022/04/12 04:28:47;;;;;;;6.03;2.15;;;18.20;59.20;;;;;;5014840;28;20030;-61
2022/04/12 04:31:12;;;;;;;5.18;2.03;;;18.20;59.20;;;;;;5015402;28;20056;-61
2022/04/12 04:33:38;;;;;;;6.65;2.30;;;18.20;59.40;;;;;;5016642;28;20491;-61
2022/04/12 04:36:04;;;;;;;7.30;2.05;;;18.10;59.20;;;;;;5020012;28;20030;-61
2022/04/12 04:38:30;;;;;;;6.90;2.30;;;18.10;59.20;;;;;;5019954;28;20387;-61
2022/04/12 04:40:55;;;;;;;7.82;2.40;;;18.10;59.20;;;;;;5018074;28;20025;-61
2022/04/12 04:43:21;;;;;;;6.13;2.30;;;18.10;59.20;;;;;;5019114;28;20055;-61
2022/04/12 04:45:46;;;;;;;8.18;2.75;;;18.10;59.20;;;;;;5025118;28;20052;-61
2022/04/12 04:48:12;;;;;;;6.43;2.10;;;18.10;59.20;;;;;;5017272;28;20092;-61
2022/04/12 04:50:38;;;;;;;6.55;1.90;;;18.10;59.20;;;;;;5015397;28;20022;-61
2022/04/12 04:53:05;;;;;;;5.95;2.17;;;18.10;59.30;;;;;;5019998;28;20418;-61
2022/04/12 04:55:35;;;;;;;6.32;2.22;;;18.10;59.20;;;;;;5016745;28;20029;-61
2022/04/12 04:58:01;;;;;;;6.35;2.30;;;18.10;59.30;;;;;;5019336;28;20030;-61
2022/04/12 05:00:29;;;;;;;7.40;2.00;;;18.10;59.30;;;;;;5020280;28;20030;-61
2022/04/12 05:02:55;;;;;;;8.15;2.55;;;18.10;59.30;;;;;;5018179;28;20060;-61
2022/04/12 05:05:21;;;;;;;7.28;2.20;;;18.10;59.30;;;;;;5020519;28;20052;-61
2022/04/12 05:07:48;;;;;;;8.55;2.28;;;18.10;59.20;;;;;;5015164;28;20056;-61
2022/04/12 05:10:18;;;;;;;9.45;2.08;;;18.10;59.30;;;;;;5015850;28;20038;-61
2022/04/12 05:12:44;;;;;;;7.72;2.33;;;18.10;59.40;;;;;;5019175;28;20038;-61
2022/04/12 05:15:10;;;;;;;8.60;2.22;;;18.00;59.30;;;;;;5016377;28;20391;-61
2022/04/12 05:17:35;;;;;;;8.10;2.30;;;18.00;59.20;;;;;;5016729;28;20112;-60
2022/04/12 05:20:01;;;;;;;7.68;2.38;;;18.10;59.30;;;;;;5013772;28;20392;-61
2022/04/12 05:22:27;;;;;;;7.28;1.92;;;18.10;59.40;;;;;;5023968;28;20667;-61
2022/04/12 05:24:53;;;;;;;6.72;2.28;;;18.10;59.30;;;;;;5022546;28;20048;-61
2022/04/12 05:27:19;;;;;;;7.70;2.00;;;18.00;59.30;;;;;;5022914;28;20398;-61
2022/04/12 05:29:44;;;;;;;10.10;2.30;;;18.00;59.30;;;;;;5023342;28;20032;-61
2022/04/12 05:32:12;;;;;;;6.55;2.38;;;18.10;59.60;;;;;;5015956;28;20494;-61
2022/04/12 05:34:41;;;;;;;8.93;2.05;;;18.00;60.20;;;;;;5015734;28;20401;-61
2022/04/12 05:37:07;;;;;;;7.32;1.90;;;18.00;60.30;;;;;;5024323;28;20037;-61
2022/04/12 05:39:32;;;;;;;12.00;2.42;;;18.00;60.30;;;;;;5011958;28;20087;-61
2022/04/12 05:42:01;;;;;;;9.45;2.25;;;18.10;60.90;;;;;;5014251;28;20026;-61
2022/04/12 05:44:27;;;;;;;8.52;2.45;;;18.10;61.50;;;;;;5017411;28;20107;-61
2022/04/12 05:46:53;;;;;;;10.07;2.60;;;18.10;61.30;;;;;;5018632;28;20562;-61
2022/04/12 05:49:19;;;;;;;15.57;2.80;;;18.10;61.70;;;;;;5014081;28;20026;-61
2022/04/12 05:51:45;;;;;;;7.78;2.28;;;18.10;61.70;;;;;;5012873;28;20037;-61
2022/04/12 05:54:10;;;;;;;11.50;2.80;;;18.10;61.60;;;;;;5015854;28;20116;-61
2022/04/12 05:56:36;;;;;;;9.75;2.67;;;18.10;61.70;;;;;;5014601;28;20029;-61
2022/04/12 05:59:02;;;;;;;8.88;2.40;;;18.10;61.60;;;;;;5013917;28;20407;-61
2022/04/12 06:01:27;;;;;;;12.02;2.65;;;18.10;61.60;;;;;;5014989;28;20029;-61
2022/04/12 06:03:53;;;;;;;9.55;2.53;;;18.10;61.60;;;;;;5015527;28;20037;-61
2022/04/12 06:06:18;;;;;;;10.50;2.22;;;18.10;61.60;;;;;;5014208;28;20026;-61
2022/04/12 06:08:44;;;;;;;9.98;2.30;;;18.10;61.60;;;;;;5014060;28;20030;-61
2022/04/12 06:11:10;;;;;;;9.57;2.38;;;18.10;61.50;;;;;;5020049;28;20492;-61
2022/04/12 06:13:35;;;;;;;9.90;2.60;;;18.00;61.60;;;;;;5017540;28;20060;-61
2022/04/12 06:16:01;;;;;;;9.40;2.42;;;18.00;61.30;;;;;;5014646;28;20462;-61
2022/04/12 06:18:26;;;;;;;9.32;2.50;;;18.00;61.50;;;;;;5014448;28;20026;-61
2022/04/12 06:20:52;;;;;;;11.73;2.90;;;18.10;61.40;;;;;;5014057;28;20029;-61
2022/04/12 06:23:18;;;;;;;10.10;2.38;;;18.00;61.40;;;;;;5015918;28;20069;-61
2022/04/12 06:25:44;;;;;;;6.95;2.08;;;18.10;61.30;;;;;;5011839;28;20060;-61
2022/04/12 06:28:10;;;;;;;8.35;2.33;;;18.00;61.30;;;;;;5018277;28;20033;-61
2022/04/12 06:30:35;;;;;;;9.55;2.25;;;18.00;61.50;;;;;;5022258;28;20045;-61
2022/04/12 06:33:01;;;;;;;8.18;2.25;;;18.10;61.30;;;;;;5024216;28;20041;-61
2022/04/12 06:35:27;;;;;;;7.30;2.40;;;18.10;61.20;;;;;;5020099;28;20052;-62
2022/04/12 06:38:02;;;;;;;8.93;2.30;;;18.00;61.20;;;;;;5013041;28;20030;-61
2022/04/12 06:40:27;;;;;;;11.25;2.63;;;18.00;61.20;;;;;;5013914;28;20040;-63
2022/04/12 06:42:53;;;;;;;8.73;2.25;;;18.00;61.80;;;;;;5025618;28;20021;-63
2022/04/12 06:45:19;;;;;;;10.55;2.22;;;18.00;61.90;;;;;;5013083;28;20038;-63
2022/04/12 06:47:50;;;;;;;14.13;2.50;;;18.10;62.10;;;;;;5017781;28;20087;-63
2022/04/12 06:50:16;;;;;;;14.23;2.50;;;18.10;62.00;;;;;;5020476;28;20064;-63
2022/04/12 06:52:42;;;;;;;10.68;2.50;;;18.10;61.90;;;;;;5019983;28;20065;-63
2022/04/12 06:55:08;;;;;;;7.95;2.22;;;18.10;61.90;;;;;;5011222;28;20030;-63
2022/04/12 06:57:34;;;;;;;10.23;2.78;;;18.10;62.30;;;;;;5023294;28;20099;-63
2022/04/12 07:00:00;;;;;;;12.50;2.95;;;18.20;63.40;;;;;;5012718;28;20542;-63
2022/04/12 07:02:26;;;;;;;11.65;2.30;;;18.20;63.50;;;;;;5018834;28;20159;-63
2022/04/12 07:04:51;;;;;;;8.70;2.60;;;18.20;63.70;;;;;;5014375;28;20057;-63
2022/04/12 07:07:17;;;;;;;14.85;2.83;;;18.20;63.40;;;;;;5022103;28;20030;-63
2022/04/12 07:09:43;;;;;;;13.95;2.70;;;18.20;63.80;;;;;;5014703;28;20181;-63
2022/04/12 07:12:08;;;;;;;13.02;2.80;;;18.20;63.50;;;;;;5011310;28;20508;-63
2022/04/12 07:14:34;;;;;;;11.30;2.50;;;18.20;64.50;;;;;;5011255;28;20541;-63
2022/04/12 07:17:00;;;;;;;11.15;2.47;;;18.20;63.60;;;;;;5015125;28;20029;-63
2022/04/12 07:19:25;;;;;;;8.80;2.55;;;18.20;63.70;;;;;;5014984;28;20030;-63
2022/04/12 07:21:52;;;;;;;12.07;2.33;;;18.20;63.90;;;;;;5021214;28;20399;-63
2022/04/12 07:24:18;;;;;;;12.57;2.25;;;18.20;63.80;;;;;;5017390;28;20413;-63
2022/04/12 07:26:43;;;;;;;16.75;2.75;;;18.20;63.60;;;;;;5018201;28;20044;-63
2022/04/12 07:29:09;;;;;;;13.18;2.60;;;18.10;63.50;;;;;;5015328;28;20026;-63
2022/04/12 07:31:35;;;;;;;9.88;2.65;;;18.10;63.60;;;;;;5011609;28;20046;-63
2022/04/12 07:34:01;;;;;;;9.13;2.63;;;18.10;63.60;;;;;;5013302;28;20030;-63
2022/04/12 07:36:26;;;;;;;8.45;2.30;;;18.20;63.60;;;;;;5017479;28;20116;-63
2022/04/12 07:38:52;;;;;;;11.43;2.38;;;18.10;63.60;;;;;;5014233;28;20018;-63
2022/04/12 07:41:18;;;;;;;12.82;2.70;;;18.10;63.50;;;;;;5016069;28;20494;-63
2022/04/12 07:43:48;;;;;;;14.10;2.35;;;18.20;63.60;;;;;;5017944;28;20021;-63
2022/04/12 07:46:14;;;;;;;11.38;2.53;;;18.10;63.50;;;;;;5020345;28;20406;-63
2022/04/12 07:48:40;;;;;;;11.32;2.45;;;18.20;63.60;;;;;;5021392;28;20018;-63
2022/04/12 07:51:06;;;;;;;10.73;2.90;;;18.20;63.50;;;;;;5015799;28;20025;-63
2022/04/12 07:53:31;;;;;;;10.90;2.80;;;18.20;63.50;;;;;;5015972;28;20037;-63
2022/04/12 07:55:57;;;;;;;8.05;2.30;;;18.20;63.60;;;;;;5015868;28;20537;-63
2022/04/12 07:58:23;;;;;;;8.38;2.42;;;18.20;63.50;;;;;;5022214;28;20029;-63
2022/04/12 08:00:48;;;;;;;8.45;2.10;;;18.20;63.40;;;;;;5016373;28;20030;-63
2022/04/12 08:03:14;;;;;;;11.73;2.47;;;18.20;63.30;;;;;;5013102;28;20025;-63
2022/04/12 08:05:40;;;;;;;9.73;2.22;;;18.20;64.30;;;;;;5017715;28;20040;-63
2022/04/12 08:08:05;;;;;;;7.68;2.28;;;18.20;63.20;;;;;;5013791;28;20693;-63
2022/04/12 08:10:31;;;;;;;8.13;2.20;;;18.20;63.20;;;;;;5010064;28;20030;-63
2022/04/12 08:12:57;;;;;;;9.15;2.13;;;18.20;63.20;;;;;;5016290;28;20038;-63
2022/04/12 08:15:24;;;;;;;6.70;2.20;;;18.20;63.20;;;;;;5014495;28;20041;-63
2022/04/12 08:17:49;;;;;;;9.55;2.00;;;18.20;63.20;;;;;;5013197;28;20029;-63
2022/04/12 08:20:15;;;;;;;10.80;2.30;;;18.10;63.10;;;;;;5019181;28;20036;-63
2022/04/12 08:22:41;;;;;;;7.80;2.13;;;18.10;63.10;;;;;;5009148;28;20026;-64
2022/04/12 08:25:07;;;;;;;12.18;2.28;;;18.20;63.20;;;;;;5011305;28;20038;-64
2022/04/12 08:27:33;;;;;;;7.65;2.10;;;18.10;63.10;;;;;;5019151;28;20508;-63
2022/04/12 08:29:59;;;;;;;8.73;1.88;;;18.20;63.20;;;;;;5015864;28;20022;-63
2022/04/12 08:32:24;;;;;;;7.30;1.90;;;18.10;63.00;;;;;;5018559;28;20426;-63
2022/04/12 08:34:50;;;;;;;7.53;2.25;;;18.10;63.00;;;;;;5017817;28;20047;-63
2022/04/12 08:37:16;;;;;;;5.55;1.95;;;18.20;62.90;;;;;;5014037;28;20046;-63
2022/04/12 08:39:41;;;;;;;11.18;2.40;;;18.10;63.00;;;;;;5015523;28;20022;-63
2022/04/12 08:42:07;;;;;;;7.20;1.80;;;18.10;62.90;;;;;;5018190;28;20124;-63
2022/04/12 08:44:34;;;;;;;10.32;2.40;;;18.20;62.90;;;;;;5020262;28;20419;-63
2022/04/12 08:47:03;;;;;;;8.73;2.08;;;18.20;62.70;;;;;;5015762;28;20034;-63
2022/04/12 08:49:28;;;;;;;7.80;2.30;;;18.20;62.90;;;;;;5021049;28;20083;-63
2022/04/12 08:51:54;;;;;;;8.25;1.77;;;18.20;62.90;;;;;;5025372;28;20586;-63
2022/04/12 08:54:20;;;;;;;9.55;2.10;;;18.20;62.90;;;;;;5015749;28;20040;-63
2022/04/12 08:56:50;;;;;;;9.57;2.20;;;18.20;63.00;;;;;;5018508;28;20039;-63
2022/04/12 08:59:16;;;;;;;8.48;2.20;;;18.20;62.70;;;;;;5023012;28;20032;-63
2022/04/12 09:01:42;;;;;;;6.60;1.70;;;18.20;62.70;;;;;;5014359;28;20095;-63
2022/04/12 09:04:08;;;;;;;9.82;1.92;;;18.20;62.70;;;;;;5020098;28;20042;-63
2022/04/12 09:06:34;;;;;;;7.10;1.98;;;18.20;62.70;;;;;;5014026;28;20495;-64
2022/04/12 09:09:15;;;;;;;7.35;1.92;;;18.20;62.60;;;;;;5019270;28;20084;-64
2022/04/12 09:11:42;;;;;;;9.05;2.13;;;18.20;62.70;;;;;;5021753;28;20565;-64
2022/04/12 09:14:13;;;;;;;5.90;1.80;;;18.20;62.70;;;;;;5017841;28;20022;-64
2022/04/12 09:16:45;;;;;;;6.22;1.83;;;18.20;62.60;;;;;;5014084;28;20512;-64
2022/04/12 09:19:11;;;;;;;9.43;2.15;;;18.20;62.80;;;;;;5015793;28;20037;-63
2022/04/12 09:21:47;;;;;;;5.18;1.85;;;18.20;62.70;;;;;;5017452;28;20030;-63
2022/04/12 09:24:22;;;;;;;5.97;1.70;;;18.20;62.70;;;;;;5022607;28;20702;-63
2022/04/12 09:26:57;;;;;;;5.55;1.77;;;18.20;62.70;;;;;;5014865;28;20034;-63
2022/04/12 09:29:31;;;;;;;;;;;18.20;62.60;;;;;;5013820;28;20112;-63
2022/04/12 09:32:00;;;;;;;5.38;1.70;;;18.20;62.60;;;;;;5021902;28;19920;-63
2022/04/12 09:34:26;;;;;;;8.52;2.00;;;18.20;62.50;;;;;;5013680;28;20048;-63
2022/04/12 09:36:52;;;;;;;5.70;1.80;;;18.20;62.40;;;;;;5023466;28;20477;-64
2022/04/12 09:39:20;;;;;;;5.22;1.63;;;18.20;62.40;;;;;;5011789;28;20113;-64
2022/04/12 09:41:49;;;;;;;6.65;1.85;;;18.20;62.30;;;;;;5016442;28;20096;-63
2022/04/12 09:44:18;;;;;;;5.38;1.73;;;18.20;62.30;;;;;;5018585;28;20042;-63
2022/04/12 09:46:44;;;;;;;5.93;1.80;;;18.20;62.30;;;;;;5015008;28;20034;-64
2022/04/12 09:49:09;;;;;;;6.00;1.80;;;18.20;62.20;;;;;;5011031;28;20402;-64
2022/04/12 09:51:36;;;;;;;5.47;1.70;;;18.20;62.20;;;;;;5017853;28;20034;-63
2022/04/12 09:54:08;;;;;;;5.78;1.85;;;18.20;62.10;;;;;;5014638;28;20034;-63
2022/04/12 09:56:36;;;;;;;7.15;1.80;;;18.20;62.10;;;;;;5014183;28;20240;-63
2022/04/12 09:59:08;;;;;;;6.82;1.73;;;18.30;62.10;;;;;;5011799;28;20129;-63
2022/04/12 10:01:41;;;;;;;7.60;1.88;;;18.20;62.00;;;;;;5013774;28;20458;-63
2022/04/12 10:04:08;;;;;;;5.20;1.60;;;18.20;62.10;;;;;;5024011;28;20026;-63
2022/04/12 10:06:33;;;;;;;5.72;1.63;;;18.20;62.00;;;;;;5020610;28;20041;-64
2022/04/12 10:09:00;;;;;;;5.57;1.58;;;18.30;62.00;;;;;;5011960;28;20025;-64
2022/04/12 10:11:25;;;;;;;4.63;1.67;;;18.30;62.00;;;;;;5014974;28;20502;-64
2022/04/12 10:13:51;;;;;;;4.07;1.48;;;18.30;62.10;;;;;;5014996;28;20036;-64
2022/04/12 10:16:18;;;;;;;5.63;1.50;;;18.30;62.00;;;;;;5017100;28;20600;-64
2022/04/12 10:18:44;;;;;;;6.47;1.60;;;18.20;62.00;;;;;;5017331;28;20029;-64
2022/04/12 10:21:13;;;;;;;5.10;1.65;;;18.30;61.90;;;;;;5021613;28;20024;-63
2022/04/12 10:23:50;;;;;;;4.13;1.55;;;18.30;61.90;;;;;;5017499;28;20033;-64
2022/04/12 10:26:19;;;;;;;4.93;1.70;;;18.30;62.00;;;;;;5023067;28;20112;-64
2022/04/12 10:28:45;;;;;;;5.45;1.70;;;18.20;62.00;;;;;;5014551;28;20075;-64
2022/04/12 10:31:13;;;;;;;3.60;1.50;;;18.30;62.00;;;;;;5023338;28;20065;-63
2022/04/12 10:33:39;;;;;;;5.90;1.88;;;18.20;61.90;;;;;;5014258;28;20032;-64
2022/04/12 10:36:06;;;;;;;3.92;1.40;;;18.30;61.90;;;;;;5015544;28;20042;-64
2022/04/12 10:38:40;;;;;;;4.57;1.60;;;18.30;61.80;;;;;;5020636;28;20095;-64
2022/04/12 10:41:17;;;;;;;4.40;1.50;;;18.30;61.90;;;;;;5014496;28;20021;-64
2022/04/12 10:43:42;;;;;;;4.45;1.52;;;18.30;61.80;;;;;;5013597;28;20068;-64
2022/04/12 10:46:11;;;;;;;4.70;1.40;;;18.30;61.70;;;;;;5018525;28;20342;-63
2022/04/12 10:48:37;;;;;;;4.57;1.50;;;18.30;61.60;;;;;;5010079;28;20037;-64
2022/04/12 10:51:03;;;;;;;3.63;1.20;;;18.30;61.70;;;;;;5013579;28;20064;-63
2022/04/12 10:53:52;;;;;;;4.85;1.50;;;18.30;61.60;;;;;;5020075;28;20513;-64
2022/04/12 10:56:21;;;;;;;3.67;1.25;;;18.30;61.60;;;;;;5015604;28;20026;-64
2022/04/12 10:58:49;;;;;;;3.53;1.40;;;18.30;61.60;;;;;;5038755;28;20481;-64
2022/04/12 11:01:47;;;;;;;3.53;1.50;;;18.40;61.50;;;;;;5021281;28;20559;-64
2022/04/12 11:04:15;;;;;;;3.85;1.50;;;18.40;61.40;;;;;;5022170;28;20033;-63
2022/04/12 11:06:43;;;;;;;5.15;1.50;;;18.40;61.40;;;;;;5008008;28;20392;-63
2022/04/12 11:09:10;;;;;;;5.43;1.75;;;18.40;61.40;;;;;;4999093;28;20536;-58
2022/04/12 11:11:44;;;;;;;3.72;1.27;;;18.40;61.20;;;;;;5031917;28;20525;-58
2022/04/12 11:14:32;;;;;;;7.10;1.80;;;18.40;61.20;;;;;;5025560;28;20037;-58
2022/04/12 11:17:01;;;;;;;4.03;1.30;;;18.40;61.20;;;;;;5027263;28;20035;-58
2022/04/12 11:19:27;;;;;;;6.13;1.48;;;18.40;61.30;;;;;;5017579;28;20032;-58
2022/04/12 11:21:55;;;;;;;6.60;1.50;;;18.40;61.40;;;;;;5025826;28;20546;-58
2022/04/12 11:24:21;;;;;;;6.28;1.40;;;18.50;61.20;;;;;;5022229;28;20068;-58
2022/04/12 11:26:49;;;;;;;4.55;1.52;;;18.40;61.20;;;;;;5023206;28;20044;-58
2022/04/12 11:29:22;;;;;;;5.50;1.50;;;18.40;61.20;;;;;;5021623;28;20025;-58
2022/04/12 11:31:54;;;;;;;4.57;1.27;;;18.50;61.40;;;;;;5025532;28;20044;-58
2022/04/12 11:34:20;;;;;;;5.93;1.52;;;18.50;61.40;;;;;;5020326;28;20041;-65
2022/04/12 11:36:51;;;;;;;7.43;1.45;;;18.50;61.30;;;;;;5025871;28;20037;-65
2022/04/12 11:39:23;;;;;;;4.60;1.50;;;18.50;61.30;;;;;;5025331;28;20048;-66
2022/04/12 11:41:49;;;;;;;6.05;1.73;;;18.50;61.40;;;;;;5017507;28;20022;-66
2022/04/12 11:44:15;;;;;;;7.50;1.73;;;18.50;61.30;;;;;;5018000;28;20443;-65
2022/04/12 11:46:40;;;;;;;4.30;1.33;;;18.50;61.30;;;;;;5018971;28;20037;-66
2022/04/12 11:49:15;;;;;;;3.33;1.30;;;18.50;61.30;;;;;;5016081;28;20018;-66
2022/04/12 11:51:41;;;;;;;5.65;1.40;;;18.50;61.20;;;;;;5016125;28;20026;-66
2022/04/12 11:54:26;;;;;;;4.10;1.20;;;18.60;61.10;;;;;;5020539;28;20041;-63
2022/04/12 11:57:13;;;;;;;4.90;1.20;;;18.60;61.00;;;;;;5020971;28;20048;-66
2022/04/12 11:59:44;;;;;;;6.15;1.50;;;18.60;61.00;;;;;;5018087;28;20418;-66
2022/04/12 12:02:10;;;;;;;4.80;1.25;;;18.60;60.90;;;;;;5016629;28;20103;-66
2022/04/12 12:04:36;;;;;;;7.63;1.50;;;18.60;60.60;;;;;;5015378;28;20115;-65
2022/04/12 12:07:06;;;;;;;6.57;1.50;;;18.50;60.50;;;;;;5016968;28;20255;-66
2022/04/12 12:09:34;;;;;;;7.55;1.55;;;18.50;60.40;;;;;;5026390;28;20063;-66
2022/04/12 12:12:01;;;;;;;9.57;1.30;;;18.50;60.10;;;;;;5018579;28;20041;-66
2022/04/12 12:14:27;;;;;;;5.38;1.30;;;18.50;60.00;;;;;;5018138;28;20061;-66
2022/04/12 12:17:18;;;;;;;3.92;1.33;;;18.50;59.90;;;;;;5020789;28;20022;-66
2022/04/12 12:19:44;;;;;;;8.57;1.50;;;18.50;59.90;;;;;;5018130;28;20033;-66
2022/04/12 12:22:11;;;;;;;6.18;1.88;;;18.60;59.70;;;;;;5021567;28;20159;-66
2022/04/12 12:24:54;;;;;;;5.15;1.25;;;18.60;60.00;;;;;;5024671;28;20044;-66
2022/04/12 12:27:26;;;;;;;4.85;1.25;;;18.60;59.80;;;;;;5019956;28;20108;-65
2022/04/12 12:29:52;;;;;;;7.20;1.50;;;18.70;60.00;;;;;;5018422;28;20487;-66
2022/04/12 12:32:18;;;;;;;6.50;1.50;;;18.70;60.00;;;;;;5019924;28;20042;-66
2022/04/12 12:34:44;;;;;;;7.30;1.48;;;18.70;60.00;;;;;;5019816;28;20021;-66
2022/04/12 12:37:11;;;;;;;7.15;1.50;;;18.70;60.10;;;;;;5021312;28;20033;-66
2022/04/12 12:39:38;;;;;;;8.15;1.70;;;18.70;60.20;;;;;;5028975;28;20026;-66
2022/04/12 12:42:04;;;;;;;8.75;1.40;;;18.70;60.20;;;;;;5020693;28;20028;-66
2022/04/12 12:44:38;;;;;;;8.38;1.52;;;18.60;60.30;;;;;;5019271;28;20046;-66
2022/04/12 12:47:04;;;;;;;10.85;1.63;;;18.60;60.20;;;;;;5020043;28;21031;-66